Time;durP1;ratioP1;P1;durP2;ratioP2;P2;SDS_P1;SDS_P2;PMS_P1;PMS_P2;Temp;Humidity;BMP_temperature;BMP_pressure;BME280_temperature;BME280_humidity;BME280_pressure;Samples;Min_cycle;Max_cycle;Signal;HPM_P1;HPM_P2
2023/04/13 00:00:38;;;;;;;1.23;0.80;;;4.80;99.90;;;;;;2112196;28;20230;-61
2023/04/13 00:01:59;;;;;;;1.17;0.90;;;4.80;99.90;;;;;;2112003;28;20193;-61
2023/04/13 00:03:20;;;;;;;1.05;0.90;;;4.90;99.90;;;;;;2111606;28;20198;-61
2023/04/13 00:04:41;;;;;;;4.40;0.98;;;4.80;99.90;;;;;;2111152;28;20185;-61
2023/04/13 00:06:03;;;;;;;1.52;1.00;;;4.80;99.90;;;;;;2111295;28;20214;-61
2023/04/13 00:07:27;;;;;;;1.25;0.93;;;4.80;99.90;;;;;;2109778;28;20225;-60
2023/04/13 00:08:48;;;;;;;0.70;0.70;;;4.80;99.90;;;;;;2113629;28;20184;-61
2023/04/13 00:10:09;;;;;;;1.17;1.08;;;4.80;99.90;;;;;;2110137;28;20197;-61
2023/04/13 00:11:30;;;;;;;1.60;0.60;;;4.80;99.90;;;;;;2112780;28;20705;-61
2023/04/13 00:12:51;;;;;;;0.98;0.90;;;4.90;99.90;;;;;;2112630;28;20222;-61
2023/04/13 00:14:12;;;;;;;0.82;0.82;;;4.90;99.90;;;;;;2112143;28;20272;-61
2023/04/13 00:15:36;;;;;;;1.65;0.90;;;4.90;99.90;;;;;;2112637;28;20297;-62
2023/04/13 00:16:58;;;;;;;0.93;0.88;;;4.80;99.90;;;;;;2112252;28;20190;-60
2023/04/13 00:18:19;;;;;;;1.42;0.85;;;4.80;99.90;;;;;;2112083;28;20259;-61
2023/04/13 00:19:41;;;;;;;3.53;1.08;;;5.70;99.90;;;;;;2111533;28;20285;-61
2023/04/13 00:21:03;;;;;;;1.45;0.88;;;4.80;99.90;;;;;;2110557;28;20263;-60
2023/04/13 00:22:26;;;;;;;1.85;0.80;;;4.70;99.90;;;;;;2110427;28;20194;-61
2023/04/13 00:23:47;;;;;;;0.77;0.77;;;4.60;99.90;;;;;;2110127;28;20623;-61
2023/04/13 00:25:11;;;;;;;2.58;1.42;;;4.70;99.90;;;;;;2109700;28;20710;-62
2023/04/13 00:26:32;;;;;;;1.05;0.80;;;4.70;99.90;;;;;;2104818;28;20212;-61
2023/04/13 00:27:53;;;;;;;1.35;1.10;;;4.70;99.90;;;;;;2111456;28;20281;-61
2023/04/13 00:29:14;;;;;;;1.05;0.95;;;4.70;99.90;;;;;;2114024;28;20197;-61
2023/04/13 00:30:35;;;;;;;0.80;0.70;;;4.70;99.90;;;;;;2112547;28;20619;-60
2023/04/13 00:31:56;;;;;;;1.10;0.90;;;4.60;99.90;;;;;;2112120;28;20197;-61
2023/04/13 00:33:17;;;;;;;3.65;0.80;;;4.50;99.90;;;;;;2111401;28;20190;-61
2023/04/13 00:34:38;;;;;;;0.80;0.80;;;4.40;99.90;;;;;;2111942;28;20198;-61
2023/04/13 00:35:59;;;;;;;0.77;0.70;;;4.30;99.90;;;;;;2111365;28;20218;-61
2023/04/13 00:37:20;;;;;;;1.35;0.90;;;4.20;99.90;;;;;;2110985;28;20355;-60
2023/04/13 00:38:45;;;;;;;1.83;1.73;;;4.50;99.90;;;;;;2110703;28;20562;-61
2023/04/13 00:40:08;;;;;;;0.82;0.80;;;4.10;99.90;;;;;;2109888;28;20202;-60
2023/04/13 00:41:29;;;;;;;2.72;0.98;;;4.00;99.90;;;;;;2109969;28;20194;-61
2023/04/13 00:42:50;;;;;;;1.77;0.75;;;4.00;99.90;;;;;;2114001;28;20263;-60
2023/04/13 00:44:11;;;;;;;1.27;0.80;;;4.10;99.90;;;;;;2113464;28;20953;-61
2023/04/13 00:45:38;;;;;;;0.98;0.60;;;4.00;99.90;;;;;;2113462;28;20217;-61
2023/04/13 00:47:01;;;;;;;1.65;0.68;;;3.90;99.90;;;;;;2104123;28;20294;-60
2023/04/13 00:48:23;;;;;;;2.28;0.88;;;4.00;99.90;;;;;;2111597;27;20193;-60
2023/04/13 00:49:44;;;;;;;3.65;0.85;;;4.00;99.90;;;;;;2112989;28;20189;-61
2023/04/13 00:51:06;;;;;;;1.35;0.80;;;4.00;99.90;;;;;;2120947;27;20196;-60
2023/04/13 00:52:28;;;;;;;0.60;0.60;;;4.10;99.90;;;;;;2114268;27;20193;-61
2023/04/13 00:53:50;;;;;;;1.17;0.65;;;4.00;99.90;;;;;;2111148;28;20190;-61
2023/04/13 00:55:11;;;;;;;0.85;0.80;;;4.00;99.90;;;;;;2119152;27;20204;-61
2023/04/13 00:56:33;;;;;;;1.17;0.70;;;4.10;99.90;;;;;;2113404;28;20721;-61
2023/04/13 00:57:54;;;;;;;1.63;0.80;;;4.20;99.90;;;;;;2110210;28;20218;-60
2023/04/13 00:59:16;;;;;;;4.78;0.80;;;4.30;99.90;;;;;;2110250;28;20185;-61
2023/04/13 01:00:37;;;;;;;1.20;0.80;;;4.30;99.90;;;;;;2109785;28;20934;-61
2023/04/13 01:02:03;;;;;;;1.08;0.70;;;4.30;99.90;;;;;;2109041;28;20188;-61
2023/04/13 01:03:25;;;;;;;0.82;0.70;;;4.20;99.90;;;;;;2113517;28;20197;-60
2023/04/13 01:04:48;;;;;;;1.00;0.82;;;4.30;99.90;;;;;;2108572;28;20197;-60
2023/04/13 01:06:27;;;;;;;2.90;0.80;;;4.30;99.90;;;;;;2108258;28;20705;-61
2023/04/13 01:08:13;;;;;;;0.70;0.63;;;4.50;99.90;;;;;;2111311;28;20269;-59
2023/04/13 01:09:45;;;;;;;1.08;0.70;;;4.60;99.90;;;;;;2110721;28;20265;-61
2023/04/13 01:11:24;;;;;;;2.80;0.80;;;4.60;99.90;;;;;;2111648;28;20654;-60
2023/04/13 01:13:09;;;;;;;2.72;0.80;;;4.70;99.90;;;;;;2116947;27;20685;-61
2023/04/13 01:14:39;;;;;;;1.33;0.90;;;4.60;99.90;;;;;;2113061;28;20200;-61
2023/04/13 01:16:15;;;;;;;2.33;0.93;;;4.60;99.90;;;;;;2104675;28;20239;-61
2023/04/13 01:17:38;;;;;;;3.55;0.90;;;4.40;99.90;;;;;;2103523;28;20359;-61
2023/04/13 01:19:00;;;;;;;2.35;1.40;;;4.10;99.90;;;;;;2110514;28;20213;-60
2023/04/13 01:20:23;;;;;;;1.00;0.70;;;4.10;99.90;;;;;;2102114;28;20248;-63
2023/04/13 01:21:44;;;;;;;1.60;0.70;;;4.10;99.90;;;;;;2107141;28;20624;-60
2023/04/13 01:23:09;;;;;;;2.28;1.00;;;4.10;99.90;;;;;;2108824;28;20287;-61
2023/04/13 01:24:52;;;;;;;0.95;0.70;;;4.00;99.90;;;;;;2112461;28;20247;-61
2023/04/13 01:26:13;;;;;;;1.45;0.90;;;4.10;99.90;;;;;;2112528;28;20743;-63
2023/04/13 01:28:00;;;;;;;3.17;1.05;;;4.10;99.90;;;;;;2114238;28;20248;-61
2023/04/13 01:29:22;;;;;;;1.40;0.82;;;4.00;99.90;;;;;;2111923;28;20197;-61
2023/04/13 01:30:45;;;;;;;2.97;0.80;;;4.00;99.90;;;;;;2102938;28;20210;-61
2023/04/13 01:32:07;;;;;;;1.10;0.63;;;4.10;99.90;;;;;;2109285;28;20201;-61
2023/04/13 01:33:29;;;;;;;2.38;0.82;;;4.10;99.90;;;;;;2110633;28;20229;-59
2023/04/13 01:34:50;;;;;;;2.13;0.80;;;4.10;99.90;;;;;;2101284;28;20198;-62
2023/04/13 01:36:12;;;;;;;1.05;0.75;;;4.10;99.90;;;;;;2108388;28;20291;-60
2023/04/13 01:37:34;;;;;;;0.73;0.60;;;4.10;99.90;;;;;;2110088;28;20198;-59
2023/04/13 01:38:55;;;;;;;2.67;0.73;;;4.10;99.90;;;;;;2110777;28;20580;-60
2023/04/13 01:40:16;;;;;;;2.83;0.80;;;4.10;99.90;;;;;;2113660;28;20310;-61
2023/04/13 01:41:37;;;;;;;2.53;0.88;;;4.20;99.90;;;;;;2113552;28;20204;-61
2023/04/13 01:42:58;;;;;;;1.45;0.73;;;4.10;99.90;;;;;;2112707;28;20228;-61
2023/04/13 01:44:19;;;;;;;3.45;0.80;;;4.10;99.90;;;;;;2103328;28;20210;-60
2023/04/13 01:46:14;;;;;;;1.33;0.90;;;4.10;99.90;;;;;;2100694;28;20217;-58
2023/04/13 01:47:38;;;;;;;0.90;0.90;;;4.00;99.90;;;;;;2113756;28;20686;-61
2023/04/13 01:49:02;;;;;;;4.18;1.08;;;4.00;99.90;;;;;;2118607;27;20652;-60
2023/04/13 01:50:49;;;;;;;1.27;0.90;;;3.90;99.90;;;;;;2105163;28;20197;-60
2023/04/13 01:52:11;;;;;;;3.25;0.70;;;3.90;99.90;;;;;;2102374;28;20197;-58
2023/04/13 01:53:43;;;;;;;4.82;0.98;;;3.80;99.90;;;;;;2105012;28;20574;-61
2023/04/13 01:55:05;;;;;;;3.30;0.68;;;3.70;99.90;;;;;;2103841;28;20243;-60
2023/04/13 01:56:28;;;;;;;1.63;0.75;;;3.60;99.90;;;;;;2108278;28;20192;-61
2023/04/13 01:57:54;;;;;;;2.75;0.68;;;3.70;99.90;;;;;;2111537;28;20196;-61
2023/04/13 01:59:16;;;;;;;2.10;1.08;;;3.70;99.90;;;;;;2103958;28;20272;-60
2023/04/13 02:00:38;;;;;;;1.13;0.80;;;3.70;99.90;;;;;;2108996;28;20674;-60
2023/04/13 02:01:59;;;;;;;1.48;0.80;;;3.70;99.90;;;;;;2111676;28;20597;-58
2023/04/13 02:03:21;;;;;;;1.42;0.90;;;3.70;99.90;;;;;;2111051;28;20201;-61
2023/04/13 02:04:42;;;;;;;2.03;0.80;;;3.60;99.90;;;;;;2110176;28;20189;-60
2023/04/13 02:06:03;;;;;;;2.55;0.90;;;3.50;99.90;;;;;;2110262;28;20216;-61
2023/04/13 02:07:24;;;;;;;1.23;0.80;;;3.40;99.90;;;;;;2108622;28;20202;-60
2023/04/13 02:08:45;;;;;;;2.83;0.90;;;3.50;99.90;;;;;;2113143;28;20241;-61
2023/04/13 02:10:07;;;;;;;0.95;0.80;;;3.40;99.90;;;;;;2120393;28;20577;-60
2023/04/13 02:11:28;;;;;;;3.47;0.90;;;3.30;99.90;;;;;;2113660;28;20205;-60
2023/04/13 02:12:49;;;;;;;1.77;1.20;;;3.20;99.90;;;;;;2110674;28;20200;-59
2023/04/13 02:14:10;;;;;;;1.80;0.82;;;3.20;99.90;;;;;;2109675;28;20193;-58
2023/04/13 02:15:38;;;;;;;2.22;1.08;;;3.20;99.90;;;;;;2109239;28;20220;-60
2023/04/13 02:16:59;;;;;;;2.70;1.05;;;3.10;99.90;;;;;;2109380;28;20193;-60
2023/04/13 02:18:22;;;;;;;3.10;1.10;;;3.10;99.90;;;;;;2108944;28;20306;-61
2023/04/13 02:19:44;;;;;;;2.72;0.88;;;3.00;99.90;;;;;;2112207;28;20234;-61
2023/04/13 02:21:08;;;;;;;2.03;0.90;;;3.00;99.90;;;;;;2111938;28;20212;-61
2023/04/13 02:22:29;;;;;;;1.00;0.80;;;2.90;99.90;;;;;;2111442;28;20196;-61
2023/04/13 02:23:51;;;;;;;1.77;0.80;;;2.90;99.90;;;;;;2111118;28;20591;-61
2023/04/13 02:25:14;;;;;;;2.53;1.13;;;2.90;99.90;;;;;;2110050;28;20795;-61
2023/04/13 02:26:36;;;;;;;1.67;0.70;;;2.90;99.90;;;;;;2109585;28;20231;-60
2023/04/13 02:27:58;;;;;;;2.03;1.20;;;2.90;99.90;;;;;;2112058;28;20641;-61
2023/04/13 02:29:20;;;;;;;1.95;1.20;;;2.90;99.90;;;;;;2112901;28;20200;-64
2023/04/13 02:30:41;;;;;;;1.65;1.10;;;2.90;99.90;;;;;;2113405;28;20193;-60
2023/04/13 02:32:02;;;;;;;2.72;0.73;;;2.90;99.90;;;;;;2111707;28;20200;-62
2023/04/13 02:33:23;;;;;;;1.70;0.77;;;2.90;99.90;;;;;;2111537;28;20188;-60
2023/04/13 02:34:44;;;;;;;1.23;0.98;;;2.90;99.90;;;;;;2112331;28;20193;-61
2023/04/13 02:36:06;;;;;;;3.58;1.00;;;2.90;99.90;;;;;;2111394;28;20821;-61
2023/04/13 02:37:31;;;;;;;1.88;1.15;;;2.90;99.90;;;;;;2110199;28;20203;-61
2023/04/13 02:38:53;;;;;;;1.00;0.90;;;2.90;99.90;;;;;;2114500;28;20189;-61
2023/04/13 02:40:14;;;;;;;1.67;0.80;;;2.90;99.90;;;;;;2115412;28;20349;-60
2023/04/13 02:41:35;;;;;;;1.75;0.77;;;2.90;99.90;;;;;;2113065;28;20317;-61
2023/04/13 02:42:58;;;;;;;3.00;1.08;;;2.90;99.90;;;;;;2112883;28;20200;-59
2023/04/13 02:44:20;;;;;;;2.05;1.10;;;2.90;99.90;;;;;;2112588;28;20200;-58
2023/04/13 02:45:41;;;;;;;2.03;0.90;;;2.90;99.90;;;;;;2111942;28;20218;-61
2023/04/13 02:47:03;;;;;;;1.20;1.10;;;2.90;99.90;;;;;;2110664;28;20230;-61
2023/04/13 02:48:25;;;;;;;1.80;0.85;;;2.80;99.90;;;;;;2115300;28;20270;-60
2023/04/13 02:49:46;;;;;;;4.05;1.50;;;2.90;99.90;;;;;;2114349;28;20288;-60
2023/04/13 02:51:07;;;;;;;1.17;0.63;;;2.90;99.90;;;;;;2113253;28;20197;-61
2023/04/13 02:52:28;;;;;;;0.90;0.90;;;2.90;99.90;;;;;;2112901;28;20657;-60
2023/04/13 02:53:51;;;;;;;1.88;0.80;;;2.90;99.90;;;;;;2112138;28;20220;-59
2023/04/13 02:55:12;;;;;;;2.45;0.77;;;2.90;99.90;;;;;;2111141;28;20297;-59
2023/04/13 02:56:34;;;;;;;2.25;0.90;;;2.90;99.90;;;;;;2110834;28;20201;-61
2023/04/13 02:57:56;;;;;;;1.52;0.90;;;2.90;99.90;;;;;;2114179;28;20353;-61
2023/04/13 02:59:17;;;;;;;1.27;0.80;;;2.90;99.90;;;;;;2116940;27;20215;-61
2023/04/13 03:00:38;;;;;;;2.92;0.93;;;3.00;99.90;;;;;;2107273;28;20629;-60
2023/04/13 03:02:00;;;;;;;3.95;0.75;;;3.00;99.90;;;;;;2112324;28;20660;-60
2023/04/13 03:03:21;;;;;;;3.67;0.82;;;3.00;99.90;;;;;;2104091;28;20181;-61
2023/04/13 03:04:43;;;;;;;1.20;0.80;;;3.10;99.90;;;;;;2108038;28;20289;-61
2023/04/13 03:06:04;;;;;;;2.97;1.13;;;3.10;99.90;;;;;;2114373;28;20219;-61
2023/04/13 03:07:25;;;;;;;4.50;0.88;;;3.10;99.90;;;;;;2113663;28;20239;-60
2023/04/13 03:08:46;;;;;;;1.73;0.90;;;2.90;99.90;;;;;;2113380;28;20207;-61
2023/04/13 03:10:09;;;;;;;2.33;1.38;;;2.80;99.90;;;;;;2113291;28;20250;-59
2023/04/13 03:11:30;;;;;;;2.88;1.00;;;2.80;99.90;;;;;;2111844;28;20190;-63
2023/04/13 03:12:52;;;;;;;3.00;0.77;;;2.80;99.90;;;;;;2111547;28;20217;-61
2023/04/13 03:14:20;;;;;;;1.35;0.73;;;2.80;99.90;;;;;;2110404;28;20245;-61
2023/04/13 03:15:41;;;;;;;2.53;0.82;;;2.90;99.90;;;;;;2110357;28;20213;-61
2023/04/13 03:17:03;;;;;;;1.50;1.02;;;3.00;99.90;;;;;;2110445;28;20938;-59
2023/04/13 03:18:24;;;;;;;1.35;1.08;;;3.10;99.90;;;;;;2113381;28;20233;-61
2023/04/13 03:19:46;;;;;;;6.15;1.25;;;3.00;99.90;;;;;;2112707;28;20255;-61
2023/04/13 03:21:07;;;;;;;3.22;1.23;;;3.00;99.90;;;;;;2112772;28;20220;-61
2023/04/13 03:22:29;;;;;;;4.60;1.00;;;3.00;99.90;;;;;;2116049;28;20223;-61
2023/04/13 03:23:50;;;;;;;1.65;0.70;;;3.00;99.90;;;;;;2114307;28;20196;-61
2023/04/13 03:25:11;;;;;;;3.83;0.90;;;3.00;99.90;;;;;;2111100;28;20605;-59
2023/04/13 03:26:32;;;;;;;1.05;0.80;;;3.10;99.90;;;;;;2114124;28;20406;-61
2023/04/13 03:27:53;;;;;;;3.85;1.40;;;3.10;99.90;;;;;;2112614;28;20200;-60
2023/04/13 03:29:14;;;;;;;2.55;0.80;;;3.00;99.90;;;;;;2113107;28;20190;-61
2023/04/13 03:30:35;;;;;;;0.70;0.70;;;2.80;99.90;;;;;;2110272;28;20279;-60
2023/04/13 03:31:56;;;;;;;2.38;0.75;;;2.80;99.90;;;;;;2111372;28;20188;-61
2023/04/13 03:33:17;;;;;;;2.55;1.00;;;2.90;99.90;;;;;;2113649;28;20186;-60
2023/04/13 03:34:42;;;;;;;1.95;0.95;;;2.80;99.90;;;;;;2114951;28;20694;-59
2023/04/13 03:36:04;;;;;;;1.45;1.00;;;2.80;99.90;;;;;;2115323;28;20702;-60
2023/04/13 03:37:31;;;;;;;1.58;0.82;;;2.70;99.90;;;;;;2113200;28;20632;-61
2023/04/13 03:38:53;;;;;;;1.65;0.98;;;2.60;99.90;;;;;;2103989;28;20201;-61
2023/04/13 03:40:14;;;;;;;1.70;0.90;;;2.60;99.90;;;;;;2107543;28;20208;-60
2023/04/13 03:41:35;;;;;;;2.15;0.80;;;2.40;99.90;;;;;;2111710;28;20214;-61
2023/04/13 03:42:56;;;;;;;2.58;0.80;;;2.30;99.90;;;;;;2111694;28;20201;-61
2023/04/13 03:44:17;;;;;;;1.83;1.17;;;2.40;99.90;;;;;;2110280;28;20246;-59
2023/04/13 03:45:38;;;;;;;1.52;1.20;;;2.40;99.90;;;;;;2110274;28;20224;-61
2023/04/13 03:47:00;;;;;;;3.17;1.10;;;2.50;99.90;;;;;;2112413;28;20861;-61
2023/04/13 03:48:21;;;;;;;1.92;1.05;;;2.40;99.90;;;;;;2112901;28;20206;-61
2023/04/13 03:49:42;;;;;;;1.90;0.95;;;2.50;99.90;;;;;;2112885;28;20195;-61
2023/04/13 03:51:03;;;;;;;5.70;1.25;;;2.40;99.90;;;;;;2111662;28;20913;-60
2023/04/13 03:52:24;;;;;;;3.55;1.08;;;2.40;99.90;;;;;;2111044;28;20201;-60
2023/04/13 03:53:45;;;;;;;2.45;1.30;;;2.20;99.90;;;;;;2114576;28;20196;-61
2023/04/13 03:55:07;;;;;;;2.03;1.23;;;2.20;99.90;;;;;;2113256;28;20197;-61
2023/04/13 03:56:28;;;;;;;4.60;1.08;;;2.20;99.90;;;;;;2111797;28;20237;-60
2023/04/13 03:57:49;;;;;;;5.53;1.52;;;2.20;99.90;;;;;;2112503;28;20263;-60
2023/04/13 03:59:10;;;;;;;2.70;1.33;;;2.10;99.90;;;;;;2119175;27;20191;-62
2023/04/13 04:00:31;;;;;;;1.67;1.45;;;2.10;99.90;;;;;;2112791;28;20575;-59
2023/04/13 04:01:52;;;;;;;5.28;1.48;;;2.10;99.90;;;;;;2109668;28;20620;-58
2023/04/13 04:03:16;;;;;;;4.28;1.40;;;2.10;99.90;;;;;;2112571;28;20252;-60
2023/04/13 04:04:37;;;;;;;3.72;1.05;;;2.10;99.90;;;;;;2112123;28;20224;-61
2023/04/13 04:05:58;;;;;;;3.35;1.60;;;2.10;99.90;;;;;;2111949;28;20206;-60
2023/04/13 04:07:22;;;;;;;7.13;1.88;;;2.20;99.90;;;;;;2110229;28;20211;-59
2023/04/13 04:08:44;;;;;;;2.50;1.13;;;2.20;99.90;;;;;;2111701;28;20281;-60
2023/04/13 04:10:06;;;;;;;5.97;1.40;;;2.30;99.90;;;;;;2110764;28;20190;-60
2023/04/13 04:11:27;;;;;;;1.60;1.08;;;2.10;99.90;;;;;;2109837;28;20198;-61
2023/04/13 04:12:48;;;;;;;4.13;1.10;;;2.10;99.90;;;;;;2114215;28;20214;-59
2023/04/13 04:14:09;;;;;;;3.47;0.93;;;2.10;99.90;;;;;;2112868;28;20281;-60
2023/04/13 04:15:30;;;;;;;3.55;1.02;;;2.10;99.90;;;;;;2111922;28;20193;-60
2023/04/13 04:16:51;;;;;;;6.63;1.20;;;2.10;99.90;;;;;;2112135;28;20206;-60
2023/04/13 04:18:12;;;;;;;4.30;1.20;;;2.10;99.90;;;;;;2111400;28;20194;-61
2023/04/13 04:19:33;;;;;;;4.95;1.50;;;2.10;99.90;;;;;;2114301;28;20198;-61
2023/04/13 04:20:54;;;;;;;1.60;0.95;;;2.10;99.90;;;;;;2121364;27;20205;-58
2023/04/13 04:22:15;;;;;;;2.53;1.13;;;2.10;99.90;;;;;;2115177;27;20578;-61
2023/04/13 04:23:38;;;;;;;3.97;1.05;;;2.10;99.90;;;;;;2112085;28;20655;-61
2023/04/13 04:25:00;;;;;;;2.22;0.80;;;2.00;99.90;;;;;;2112369;28;20198;-60
2023/04/13 04:26:24;;;;;;;2.13;1.00;;;2.00;99.90;;;;;;2110555;28;20577;-61
2023/04/13 04:27:45;;;;;;;1.75;0.95;;;2.00;99.90;;;;;;2111124;28;20267;-61
2023/04/13 04:29:08;;;;;;;2.42;0.82;;;1.90;99.90;;;;;;2108812;28;20206;-61
2023/04/13 04:30:32;;;;;;;2.75;1.02;;;1.90;99.90;;;;;;2114498;28;20183;-62
2023/04/13 04:31:53;;;;;;;1.80;1.63;;;1.90;99.90;;;;;;2112067;28;20214;-59
2023/04/13 04:33:14;;;;;;;2.10;1.20;;;2.00;99.90;;;;;;2112643;28;20664;-62
2023/04/13 04:34:35;;;;;;;3.92;1.48;;;1.90;99.90;;;;;;2110841;28;20247;-62
2023/04/13 04:35:57;;;;;;;2.65;1.40;;;1.90;99.90;;;;;;2113105;28;20261;-58
2023/04/13 04:37:22;;;;;;;4.82;1.65;;;2.00;99.90;;;;;;2109906;28;20538;-60
2023/04/13 04:38:43;;;;;;;4.93;1.63;;;2.00;99.90;;;;;;2110589;28;20294;-60
2023/04/13 04:40:08;;;;;;;3.58;1.75;;;2.00;99.90;;;;;;2114156;28;20260;-60
2023/04/13 04:41:30;;;;;;;3.60;2.38;;;2.10;99.90;;;;;;2113214;28;20200;-60
2023/04/13 04:42:51;;;;;;;8.02;2.13;;;2.10;99.90;;;;;;2114004;28;20195;-62
2023/04/13 04:44:15;;;;;;;5.60;2.17;;;2.10;99.90;;;;;;2113259;28;20205;-58
2023/04/13 04:45:37;;;;;;;3.95;1.50;;;2.10;99.90;;;;;;2111783;28;20215;-59
2023/04/13 04:46:58;;;;;;;6.13;1.75;;;2.20;99.90;;;;;;2111967;28;20696;-59
2023/04/13 04:48:20;;;;;;;6.10;1.73;;;2.10;99.90;;;;;;2110434;28;20652;-60
2023/04/13 04:49:41;;;;;;;4.20;1.30;;;2.20;99.90;;;;;;2109656;28;20197;-60
2023/04/13 04:51:02;;;;;;;5.05;1.40;;;2.10;99.90;;;;;;2109160;28;20194;-59
2023/04/13 04:52:24;;;;;;;4.07;1.33;;;2.00;99.90;;;;;;2113271;28;20195;-61
2023/04/13 04:53:45;;;;;;;1.02;0.90;;;2.00;99.90;;;;;;2112451;28;20221;-60
2023/04/13 04:55:07;;;;;;;3.28;0.90;;;2.00;99.90;;;;;;2111613;28;20231;-61
2023/04/13 04:56:28;;;;;;;2.85;0.90;;;2.00;99.90;;;;;;2110506;28;20328;-60
2023/04/13 04:57:49;;;;;;;1.92;1.10;;;2.00;99.90;;;;;;2110594;28;20300;-61
2023/04/13 04:59:10;;;;;;;2.72;1.38;;;2.10;99.90;;;;;;2109062;28;20193;-61
2023/04/13 05:00:31;;;;;;;5.60;0.90;;;2.20;99.90;;;;;;2108995;28;20191;-60
2023/04/13 05:01:52;;;;;;;1.55;1.02;;;2.20;99.90;;;;;;2113364;27;20184;-61
2023/04/13 05:03:13;;;;;;;3.45;1.10;;;2.30;99.90;;;;;;2115089;27;20294;-61
2023/04/13 05:04:35;;;;;;;1.90;1.17;;;2.40;99.90;;;;;;2111162;28;20192;-61
2023/04/13 05:05:56;;;;;;;4.20;1.02;;;2.30;99.90;;;;;;2109945;28;20708;-62
2023/04/13 05:07:17;;;;;;;2.45;1.00;;;2.20;99.90;;;;;;2108065;28;20269;-60
2023/04/13 05:08:38;;;;;;;4.38;1.63;;;2.10;99.90;;;;;;2108326;27;20185;-62
2023/04/13 05:09:59;;;;;;;4.75;1.30;;;2.10;99.90;;;;;;2110270;28;20618;-63
2023/04/13 05:11:21;;;;;;;10.52;2.00;;;2.10;99.90;;;;;;2110670;28;20195;-63
2023/04/13 05:12:42;;;;;;;4.78;1.08;;;2.20;99.90;;;;;;2111999;27;20200;-62
2023/04/13 05:14:03;;;;;;;2.15;1.10;;;2.20;99.90;;;;;;2110511;28;20201;-61
2023/04/13 05:15:25;;;;;;;3.25;1.02;;;2.20;99.90;;;;;;2109716;28;20631;-60
2023/04/13 05:16:46;;;;;;;3.88;1.23;;;2.10;99.90;;;;;;2109369;28;20208;-60
2023/04/13 05:18:09;;;;;;;3.55;1.30;;;2.20;99.90;;;;;;2111320;28;20325;-62
2023/04/13 05:19:30;;;;;;;3.75;1.48;;;2.40;99.90;;;;;;2111703;28;20247;-62
2023/04/13 05:20:51;;;;;;;1.52;1.00;;;2.50;99.90;;;;;;2115786;28;20199;-63
2023/04/13 05:22:14;;;;;;;7.50;1.48;;;2.30;99.90;;;;;;2113713;28;20178;-62
2023/04/13 05:23:35;;;;;;;2.90;0.85;;;2.30;99.90;;;;;;2110703;28;20591;-62
2023/04/13 05:24:56;;;;;;;5.13;1.40;;;2.30;99.90;;;;;;2109849;28;20333;-60
2023/04/13 05:26:19;;;;;;;2.35;1.20;;;2.50;99.90;;;;;;2113530;28;20272;-61
2023/04/13 05:27:40;;;;;;;4.25;1.33;;;2.50;99.90;;;;;;2111740;28;20208;-62
2023/04/13 05:29:03;;;;;;;5.95;1.55;;;2.60;99.90;;;;;;2113595;28;20193;-62
2023/04/13 05:30:24;;;;;;;5.53;1.40;;;2.60;99.90;;;;;;2110851;28;20193;-62
2023/04/13 05:31:45;;;;;;;4.60;1.30;;;2.50;99.90;;;;;;2110481;28;20196;-62
2023/04/13 05:33:07;;;;;;;4.68;1.40;;;2.60;99.90;;;;;;2110472;28;20223;-62
2023/04/13 05:34:29;;;;;;;3.72;1.30;;;2.60;99.90;;;;;;2110020;28;20225;-61
2023/04/13 05:35:50;;;;;;;5.63;1.83;;;2.70;99.90;;;;;;2113316;28;20203;-63
2023/04/13 05:37:13;;;;;;;10.95;5.32;;;2.80;99.90;;;;;;2112393;28;20199;-62
2023/04/13 05:38:34;;;;;;;17.08;6.60;;;2.80;99.90;;;;;;2111962;28;20192;-62
2023/04/13 05:39:55;;;;;;;4.03;2.00;;;2.80;99.90;;;;;;2111265;28;20196;-62
2023/04/13 05:41:16;;;;;;;3.30;1.17;;;2.70;99.90;;;;;;2110292;28;20898;-62
2023/04/13 05:42:37;;;;;;;7.95;1.83;;;2.70;99.90;;;;;;2109394;28;21006;-62
2023/04/13 05:43:58;;;;;;;2.80;0.93;;;2.80;99.90;;;;;;2109324;28;20195;-62
2023/04/13 05:45:20;;;;;;;3.05;1.25;;;2.80;99.90;;;;;;2111934;28;20246;-62
2023/04/13 05:46:41;;;;;;;4.15;1.38;;;2.90;99.90;;;;;;2112535;28;20235;-61
2023/04/13 05:48:03;;;;;;;3.15;1.35;;;3.00;99.90;;;;;;2111081;28;20274;-62
2023/04/13 05:49:25;;;;;;;1.65;1.00;;;3.00;99.90;;;;;;2110392;28;20195;-62
2023/04/13 05:50:46;;;;;;;7.63;2.00;;;3.10;99.90;;;;;;2109362;28;20196;-63
2023/04/13 05:52:09;;;;;;;7.63;2.75;;;3.20;99.90;;;;;;2107978;28;20381;-63
2023/04/13 05:53:30;;;;;;;3.15;1.30;;;3.40;99.90;;;;;;2112649;28;20256;-62
2023/04/13 05:54:51;;;;;;;4.95;1.00;;;3.40;99.90;;;;;;2111714;28;20193;-62
2023/04/13 05:56:12;;;;;;;3.75;1.50;;;3.50;99.90;;;;;;2109348;28;20267;-63
2023/04/13 05:57:33;;;;;;;10.07;1.95;;;3.70;99.90;;;;;;2109525;28;20236;-62
2023/04/13 05:58:54;;;;;;;5.82;1.13;;;3.80;99.90;;;;;;2108831;28;20196;-62
2023/04/13 06:00:18;;;;;;;6.00;1.30;;;3.90;99.90;;;;;;2108541;28;20186;-62
2023/04/13 06:01:39;;;;;;;10.35;4.78;;;3.90;99.90;;;;;;2112053;28;20189;-62
2023/04/13 06:03:01;;;;;;;3.80;1.20;;;4.00;99.90;;;;;;2112737;28;20623;-62
2023/04/13 06:04:22;;;;;;;6.05;1.50;;;3.90;99.90;;;;;;2112554;28;20193;-62
2023/04/13 06:05:43;;;;;;;2.50;1.17;;;4.00;99.90;;;;;;2110870;28;20208;-62
2023/04/13 06:07:04;;;;;;;9.48;1.77;;;3.90;99.90;;;;;;2118325;27;20972;-62
2023/04/13 06:08:31;;;;;;;5.95;1.30;;;3.80;99.90;;;;;;2109800;28;20190;-61
2023/04/13 06:09:52;;;;;;;2.33;1.52;;;3.70;99.90;;;;;;2111707;28;20185;-61
2023/04/13 06:11:14;;;;;;;3.58;1.80;;;3.80;99.90;;;;;;2111270;28;20739;-61
2023/04/13 06:12:35;;;;;;;5.45;1.40;;;3.90;99.90;;;;;;2110392;28;20729;-61
2023/04/13 06:13:56;;;;;;;3.60;1.20;;;3.90;99.90;;;;;;2111173;28;20190;-62
2023/04/13 06:15:19;;;;;;;4.93;1.30;;;4.00;99.90;;;;;;2109712;28;20190;-62
2023/04/13 06:16:40;;;;;;;10.15;1.30;;;4.00;99.90;;;;;;2110059;28;20674;-63
2023/04/13 06:18:01;;;;;;;5.35;1.13;;;4.00;99.90;;;;;;2109780;28;20207;-62
2023/04/13 06:19:23;;;;;;;4.75;1.13;;;4.10;99.90;;;;;;2108962;28;20225;-62
2023/04/13 06:20:46;;;;;;;3.00;1.25;;;4.20;99.90;;;;;;2108858;28;20197;-62
2023/04/13 06:22:07;;;;;;;5.07;1.48;;;4.10;99.90;;;;;;2113443;28;20196;-63
2023/04/13 06:23:28;;;;;;;3.08;1.40;;;4.10;99.90;;;;;;2111868;28;20188;-62
2023/04/13 06:24:50;;;;;;;1.65;1.10;;;4.10;99.90;;;;;;2112279;28;20661;-62
2023/04/13 06:26:11;;;;;;;6.35;1.20;;;4.10;99.90;;;;;;2112139;28;20667;-62
2023/04/13 06:27:33;;;;;;;4.35;1.15;;;4.00;99.90;;;;;;2110415;28;20670;-61
2023/04/13 06:28:54;;;;;;;2.88;1.00;;;4.00;99.90;;;;;;2110962;28;20224;-62
2023/04/13 06:30:15;;;;;;;3.00;1.20;;;4.10;99.90;;;;;;2110708;28;20709;-62
2023/04/13 06:31:36;;;;;;;5.60;1.25;;;4.20;99.90;;;;;;2104115;28;20287;-62
2023/04/13 06:32:57;;;;;;;3.67;1.30;;;4.30;99.90;;;;;;2108611;28;20209;-62
2023/04/13 06:34:19;;;;;;;2.88;1.20;;;4.00;99.90;;;;;;2109537;28;20178;-62
2023/04/13 06:35:40;;;;;;;5.28;1.42;;;4.50;99.50;;;;;;2108981;28;20682;-62
2023/04/13 06:37:01;;;;;;;6.97;1.52;;;4.40;99.40;;;;;;2108036;28;20197;-63
2023/04/13 06:38:22;;;;;;;3.08;1.08;;;4.40;99.30;;;;;;2112324;28;20273;-61
2023/04/13 06:39:43;;;;;;;5.32;1.45;;;4.40;99.70;;;;;;2113024;28;20198;-62
2023/04/13 06:41:05;;;;;;;5.03;1.80;;;4.40;99.90;;;;;;2111812;28;20194;-67
2023/04/13 06:42:26;;;;;;;3.28;1.30;;;4.50;99.90;;;;;;2118786;28;20208;-67
2023/04/13 06:43:47;;;;;;;3.97;1.45;;;4.60;98.90;;;;;;2114075;28;20183;-67
2023/04/13 06:45:10;;;;;;;6.45;1.38;;;4.60;98.00;;;;;;2110560;28;20302;-62
2023/04/13 06:46:31;;;;;;;5.93;1.50;;;4.60;98.80;;;;;;2109674;28;20191;-66
2023/04/13 06:47:53;;;;;;;6.90;1.27;;;4.60;98.50;;;;;;2109554;28;20190;-62
2023/04/13 06:49:14;;;;;;;2.80;1.50;;;4.50;98.30;;;;;;2109259;28;20194;-62
2023/04/13 06:50:35;;;;;;;3.15;1.10;;;4.50;98.80;;;;;;2109539;28;20314;-62
2023/04/13 06:51:56;;;;;;;8.15;1.98;;;4.40;98.40;;;;;;2108619;28;20644;-62
2023/04/13 06:53:18;;;;;;;2.83;1.30;;;4.50;99.00;;;;;;2111502;28;20189;-62
2023/04/13 06:54:39;;;;;;;5.50;1.90;;;4.60;98.30;;;;;;2112916;28;20189;-62
2023/04/13 06:56:00;;;;;;;2.83;1.00;;;4.60;98.20;;;;;;2111866;28;20206;-63
2023/04/13 06:57:21;;;;;;;3.20;1.25;;;4.80;97.70;;;;;;2113537;28;20276;-62
2023/04/13 06:58:44;;;;;;;4.55;1.00;;;4.90;98.10;;;;;;2114014;28;20272;-62
2023/04/13 07:00:07;;;;;;;5.53;1.40;;;4.90;97.10;;;;;;2109905;28;20229;-62
2023/04/13 07:01:29;;;;;;;4.50;1.30;;;4.90;98.20;;;;;;2118607;28;20192;-62
2023/04/13 07:02:50;;;;;;;4.28;1.10;;;5.10;97.60;;;;;;2117556;28;20272;-63
2023/04/13 07:04:11;;;;;;;3.38;1.88;;;5.20;96.30;;;;;;2113051;28;20243;-62
2023/04/13 07:05:32;;;;;;;4.70;1.00;;;5.10;95.80;;;;;;2112525;28;20189;-62
2023/04/13 07:06:53;;;;;;;7.65;1.30;;;5.10;96.80;;;;;;2117896;28;20592;-62
2023/04/13 07:08:14;;;;;;;8.20;1.42;;;5.00;96.00;;;;;;2113149;28;20189;-63
2023/04/13 07:09:35;;;;;;;2.75;1.10;;;4.90;97.70;;;;;;2117675;28;20197;-61
2023/04/13 07:10:56;;;;;;;2.17;0.90;;;4.90;97.50;;;;;;2116993;28;20268;-63
2023/04/13 07:12:17;;;;;;;5.43;1.67;;;4.90;97.30;;;;;;2116910;28;20175;-62
2023/04/13 07:13:39;;;;;;;6.78;1.40;;;4.90;96.70;;;;;;2118808;28;20734;-63
2023/04/13 07:15:00;;;;;;;5.35;1.67;;;4.80;95.60;;;;;;2109945;28;20282;-63